sensor_id;sensor_type;location;lat;lon;timestamp;temperature;humidity
6429;DHT22;3247;48.946;10.220;2022-12-05T00:00:29;2.30;99.90
6429;DHT22;3247;48.946;10.220;2022-12-05T00:02:55;2.30;99.90
6429;DHT22;3247;48.946;10.220;2022-12-05T00:05:20;2.30;99.90
6429;DHT22;3247;48.946;10.220;2022-12-05T00:07:46;2.30;99.90
6429;DHT22;3247;48.946;10.220;2022-12-05T00:10:12;2.30;99.90
6429;DHT22;3247;48.946;10.220;2022-12-05T00:12:37;3.20;99.90
6429;DHT22;3247;48.946;10.220;2022-12-05T00:15:03;2.30;99.90
6429;DHT22;3247;48.946;10.220;2022-12-05T00:20:22;2.30;99.90
6429;DHT22;3247;48.946;10.220;2022-12-05T00:22:48;2.30;99.90
6429;DHT22;3247;48.946;10.220;2022-12-05T00:25:13;2.30;99.90
6429;DHT22;3247;48.946;10.220;2022-12-05T00:27:39;2.30;99.90
6429;DHT22;3247;48.946;10.220;2022-12-05T00:30:05;2.30;99.90
6429;DHT22;3247;48.946;10.220;2022-12-05T00:32:30;2.30;99.90
6429;DHT22;3247;48.946;10.220;2022-12-05T00:34:56;2.30;99.90
6429;DHT22;3247;48.946;10.220;2022-12-05T00:37:21;2.40;99.90
6429;DHT22;3247;48.946;10.220;2022-12-05T00:39:47;2.40;99.90
6429;DHT22;3247;48.946;10.220;2022-12-05T00:42:13;2.40;99.90
6429;DHT22;3247;48.946;10.220;2022-12-05T00:44:38;2.40;99.90
6429;DHT22;3247;48.946;10.220;2022-12-05T00:47:04;2.30;99.90
6429;DHT22;3247;48.946;10.220;2022-12-05T00:49:29;3.00;99.90
6429;DHT22;3247;48.946;10.220;2022-12-05T00:51:55;2.30;99.90
6429;DHT22;3247;48.946;10.220;2022-12-05T00:54:20;2.30;99.90
6429;DHT22;3247;48.946;10.220;2022-12-05T00:56:46;2.30;99.90
6429;DHT22;3247;48.946;10.220;2022-12-05T00:59:13;2.70;99.90
6429;DHT22;3247;48.946;10.220;2022-12-05T01:01:40;2.40;99.90
6429;DHT22;3247;48.946;10.220;2022-12-05T01:04:10;2.30;99.90
6429;DHT22;3247;48.946;10.220;2022-12-05T01:06:36;2.30;99.90
6429;DHT22;3247;48.946;10.220;2022-12-05T01:09:02;2.90;99.90
6429;DHT22;3247;48.946;10.220;2022-12-05T01:11:28;2.40;99.90
6429;DHT22;3247;48.946;10.220;2022-12-05T01:13:54;2.30;99.90
6429;DHT22;3247;48.946;10.220;2022-12-05T01:16:33;2.40;99.90
6429;DHT22;3247;48.946;10.220;2022-12-05T01:18:59;2.30;99.90
6429;DHT22;3247;48.946;10.220;2022-12-05T01:21:25;3.00;99.90
6429;DHT22;3247;48.946;10.220;2022-12-05T01:23:51;2.30;99.90
6429;DHT22;3247;48.946;10.220;2022-12-05T01:26:17;2.30;99.90
6429;DHT22;3247;48.946;10.220;2022-12-05T01:28:43;2.80;99.90
6429;DHT22;3247;48.946;10.220;2022-12-05T01:31:31;2.30;99.90
6429;DHT22;3247;48.946;10.220;2022-12-05T01:33:55;3.00;99.90
6429;DHT22;3247;48.946;10.220;2022-12-05T01:36:21;2.50;99.90
6429;DHT22;3247;48.946;10.220;2022-12-05T01:38:47;2.30;99.90
6429;DHT22;3247;48.946;10.220;2022-12-05T01:41:14;2.20;99.90
6429;DHT22;3247;48.946;10.220;2022-12-05T01:49:30;2.20;99.90
6429;DHT22;3247;48.946;10.220;2022-12-05T01:51:58;2.20;99.90
6429;DHT22;3247;48.946;10.220;2022-12-05T01:54:25;2.20;99.90
6429;DHT22;3247;48.946;10.220;2022-12-05T01:56:58;2.20;99.90
6429;DHT22;3247;48.946;10.220;2022-12-05T01:59:24;2.10;99.90
6429;DHT22;3247;48.946;10.220;2022-12-05T02:01:52;2.20;99.90
6429;DHT22;3247;48.946;10.220;2022-12-05T02:04:18;2.20;99.90
6429;DHT22;3247;48.946;10.220;2022-12-05T02:06:44;2.20;99.90
6429;DHT22;3247;48.946;10.220;2022-12-05T02:09:09;2.10;99.90
6429;DHT22;3247;48.946;10.220;2022-12-05T02:11:35;2.10;99.90
6429;DHT22;3247;48.946;10.220;2022-12-05T02:30:58;2.00;99.90
6429;DHT22;3247;48.946;10.220;2022-12-05T02:33:30;1.90;99.90
6429;DHT22;3247;48.946;10.220;2022-12-05T02:36:02;1.90;99.90
6429;DHT22;3247;48.946;10.220;2022-12-05T02:38:40;1.90;99.90
6429;DHT22;3247;48.946;10.220;2022-12-05T02:44:00;1.80;99.90
6429;DHT22;3247;48.946;10.220;2022-12-05T02:49:25;1.80;99.90
6429;DHT22;3247;48.946;10.220;2022-12-05T02:51:55;1.70;99.90
6429;DHT22;3247;48.946;10.220;2022-12-05T02:54:23;0.90;99.90
6429;DHT22;3247;48.946;10.220;2022-12-05T02:56:49;1.70;99.90
6429;DHT22;3247;48.946;10.220;2022-12-05T02:59:16;1.70;99.90
6429;DHT22;3247;48.946;10.220;2022-12-05T03:01:42;1.70;99.90
6429;DHT22;3247;48.946;10.220;2022-12-05T03:04:09;1.70;99.90
6429;DHT22;3247;48.946;10.220;2022-12-05T03:06:38;1.70;99.90
6429;DHT22;3247;48.946;10.220;2022-12-05T03:09:06;1.70;99.90
6429;DHT22;3247;48.946;10.220;2022-12-05T03:11:34;1.70;99.90
6429;DHT22;3247;48.946;10.220;2022-12-05T03:14:02;1.70;99.90
6429;DHT22;3247;48.946;10.220;2022-12-05T03:16:35;1.70;99.90
6429;DHT22;3247;48.946;10.220;2022-12-05T03:19:08;1.70;99.90
6429;DHT22;3247;48.946;10.220;2022-12-05T03:21:36;1.70;99.90
6429;DHT22;3247;48.946;10.220;2022-12-05T03:24:04;1.70;99.90
6429;DHT22;3247;48.946;10.220;2022-12-05T03:34:06;1.70;99.90
6429;DHT22;3247;48.946;10.220;2022-12-05T03:36:36;1.70;99.90
6429;DHT22;3247;48.946;10.220;2022-12-05T03:39:08;1.70;99.90
6429;DHT22;3247;48.946;10.220;2022-12-05T03:41:51;1.70;99.90
6429;DHT22;3247;48.946;10.220;2022-12-05T03:47:03;1.60;99.90
6429;DHT22;3247;48.946;10.220;2022-12-05T03:49:34;1.60;99.90
6429;DHT22;3247;48.946;10.220;2022-12-05T03:52:09;1.70;99.90
6429;DHT22;3247;48.946;10.220;2022-12-05T03:54:37;1.60;99.90
6429;DHT22;3247;48.946;10.220;2022-12-05T03:57:14;1.60;99.90
6429;DHT22;3247;48.946;10.220;2022-12-05T03:59:49;1.50;99.90
6429;DHT22;3247;48.946;10.220;2022-12-05T04:02:30;1.50;99.90
6429;DHT22;3247;48.946;10.220;2022-12-05T04:05:06;1.50;99.90
6429;DHT22;3247;48.946;10.220;2022-12-05T04:07:34;1.60;99.90
6429;DHT22;3247;48.946;10.220;2022-12-05T04:10:02;1.50;99.90
6429;DHT22;3247;48.946;10.220;2022-12-05T04:12:30;1.50;99.90
6429;DHT22;3247;48.946;10.220;2022-12-05T04:14:58;1.50;99.90
6429;DHT22;3247;48.946;10.220;2022-12-05T04:17:26;1.60;99.90
6429;DHT22;3247;48.946;10.220;2022-12-05T04:22:57;1.60;99.90
6429;DHT22;3247;48.946;10.220;2022-12-05T04:25:23;1.60;99.90
6429;DHT22;3247;48.946;10.220;2022-12-05T04:30:42;1.60;99.90
6429;DHT22;3247;48.946;10.220;2022-12-05T04:33:12;1.60;99.90
6429;DHT22;3247;48.946;10.220;2022-12-05T04:35:42;1.60;99.90
6429;DHT22;3247;48.946;10.220;2022-12-05T04:38:10;1.50;99.90
6429;DHT22;3247;48.946;10.220;2022-12-05T04:40:39;1.60;99.90
6429;DHT22;3247;48.946;10.220;2022-12-05T04:43:06;1.50;99.90
6429;DHT22;3247;48.946;10.220;2022-12-05T04:45:51;1.50;99.90
6429;DHT22;3247;48.946;10.220;2022-12-05T04:48:18;1.60;99.90
6429;DHT22;3247;48.946;10.220;2022-12-05T04:50:46;1.60;99.90
6429;DHT22;3247;48.946;10.220;2022-12-05T04:53:13;1.60;99.90
6429;DHT22;3247;48.946;10.220;2022-12-05T04:55:41;1.60;99.90
6429;DHT22;3247;48.946;10.220;2022-12-05T04:58:09;1.60;99.90
6429;DHT22;3247;48.946;10.220;2022-12-05T05:00:44;1.60;99.90
6429;DHT22;3247;48.946;10.220;2022-12-05T05:03:13;1.60;99.90
6429;DHT22;3247;48.946;10.220;2022-12-05T05:05:42;1.70;99.90
6429;DHT22;3247;48.946;10.220;2022-12-05T05:08:14;1.70;99.90
6429;DHT22;3247;48.946;10.220;2022-12-05T05:10:41;1.70;99.90
6429;DHT22;3247;48.946;10.220;2022-12-05T05:13:09;2.50;99.90
6429;DHT22;3247;48.946;10.220;2022-12-05T05:15:34;1.70;99.90
6429;DHT22;3247;48.946;10.220;2022-12-05T05:18:00;1.60;99.90
6429;DHT22;3247;48.946;10.220;2022-12-05T05:20:25;1.70;99.90
6429;DHT22;3247;48.946;10.220;2022-12-05T05:22:52;1.60;99.90
6429;DHT22;3247;48.946;10.220;2022-12-05T05:25:17;1.70;99.90
6429;DHT22;3247;48.946;10.220;2022-12-05T05:33:55;1.70;99.90
6429;DHT22;3247;48.946;10.220;2022-12-05T05:36:23;1.70;99.90
6429;DHT22;3247;48.946;10.220;2022-12-05T05:38:49;1.70;99.90
6429;DHT22;3247;48.946;10.220;2022-12-05T05:41:20;1.70;99.90
6429;DHT22;3247;48.946;10.220;2022-12-05T05:43:46;1.70;99.90
6429;DHT22;3247;48.946;10.220;2022-12-05T05:49:14;1.70;99.90
6429;DHT22;3247;48.946;10.220;2022-12-05T05:51:40;1.70;99.90
6429;DHT22;3247;48.946;10.220;2022-12-05T05:54:05;1.70;99.90
6429;DHT22;3247;48.946;10.220;2022-12-05T05:56:30;1.70;99.90
6429;DHT22;3247;48.946;10.220;2022-12-05T05:58:57;1.70;99.90
6429;DHT22;3247;48.946;10.220;2022-12-05T06:01:23;1.70;99.90
6429;DHT22;3247;48.946;10.220;2022-12-05T06:03:53;1.70;99.90
6429;DHT22;3247;48.946;10.220;2022-12-05T06:06:19;1.80;99.90
6429;DHT22;3247;48.946;10.220;2022-12-05T06:08:46;1.70;99.90
6429;DHT22;3247;48.946;10.220;2022-12-05T06:11:13;1.70;99.90
6429;DHT22;3247;48.946;10.220;2022-12-05T06:13:39;1.70;99.90
6429;DHT22;3247;48.946;10.220;2022-12-05T06:16:17;1.80;99.90
6429;DHT22;3247;48.946;10.220;2022-12-05T06:18:43;1.80;99.90
6429;DHT22;3247;48.946;10.220;2022-12-05T06:21:08;1.80;99.90
6429;DHT22;3247;48.946;10.220;2022-12-05T06:23:35;1.80;99.90
6429;DHT22;3247;48.946;10.220;2022-12-05T06:26:00;1.80;99.90
6429;DHT22;3247;48.946;10.220;2022-12-05T06:28:26;1.80;99.90
6429;DHT22;3247;48.946;10.220;2022-12-05T06:30:52;1.80;99.90
6429;DHT22;3247;48.946;10.220;2022-12-05T06:33:17;1.80;99.90
6429;DHT22;3247;48.946;10.220;2022-12-05T06:35:43;1.80;99.90
6429;DHT22;3247;48.946;10.220;2022-12-05T06:38:09;1.80;99.90
6429;DHT22;3247;48.946;10.220;2022-12-05T06:40:38;1.80;99.90
6429;DHT22;3247;48.946;10.220;2022-12-05T06:43:04;1.80;99.90
6429;DHT22;3247;48.946;10.220;2022-12-05T06:45:29;1.80;99.90
6429;DHT22;3247;48.946;10.220;2022-12-05T06:47:55;1.80;99.90
6429;DHT22;3247;48.946;10.220;2022-12-05T06:50:20;1.80;99.90
6429;DHT22;3247;48.946;10.220;2022-12-05T06:52:45;1.80;99.90
6429;DHT22;3247;48.946;10.220;2022-12-05T06:55:11;1.90;99.90
6429;DHT22;3247;48.946;10.220;2022-12-05T06:57:36;1.80;99.90
6429;DHT22;3247;48.946;10.220;2022-12-05T07:00:03;1.80;99.90
6429;DHT22;3247;48.946;10.220;2022-12-05T07:02:51;1.80;99.90
6429;DHT22;3247;48.946;10.220;2022-12-05T07:05:17;1.80;99.90
6429;DHT22;3247;48.946;10.220;2022-12-05T07:07:43;1.80;99.90
6429;DHT22;3247;48.946;10.220;2022-12-05T07:10:08;1.80;99.90
6429;DHT22;3247;48.946;10.220;2022-12-05T07:12:34;1.80;99.90
6429;DHT22;3247;48.946;10.220;2022-12-05T07:14:59;1.90;99.90
6429;DHT22;3247;48.946;10.220;2022-12-05T07:17:43;1.90;99.90
6429;DHT22;3247;48.946;10.220;2022-12-05T07:20:08;1.90;99.90
6429;DHT22;3247;48.946;10.220;2022-12-05T07:22:35;1.90;99.90
6429;DHT22;3247;48.946;10.220;2022-12-05T07:25:00;2.00;99.90
6429;DHT22;3247;48.946;10.220;2022-12-05T07:27:26;1.90;99.90
6429;DHT22;3247;48.946;10.220;2022-12-05T07:29:52;1.90;99.90
6429;DHT22;3247;48.946;10.220;2022-12-05T07:32:17;1.90;99.90
6429;DHT22;3247;48.946;10.220;2022-12-05T07:34:42;1.90;99.90
6429;DHT22;3247;48.946;10.220;2022-12-05T07:37:08;2.00;99.90
6429;DHT22;3247;48.946;10.220;2022-12-05T07:39:33;2.00;99.90
6429;DHT22;3247;48.946;10.220;2022-12-05T07:41:59;2.00;99.90
6429;DHT22;3247;48.946;10.220;2022-12-05T07:44:24;2.00;99.90
6429;DHT22;3247;48.946;10.220;2022-12-05T07:47:08;2.00;99.90
6429;DHT22;3247;48.946;10.220;2022-12-05T07:49:34;2.00;99.90
6429;DHT22;3247;48.946;10.220;2022-12-05T07:51:59;1.70;99.90
6429;DHT22;3247;48.946;10.220;2022-12-05T07:54:25;2.10;99.90
6429;DHT22;3247;48.946;10.220;2022-12-05T07:56:51;2.10;99.90
6429;DHT22;3247;48.946;10.220;2022-12-05T07:59:16;2.20;99.90
6429;DHT22;3247;48.946;10.220;2022-12-05T08:01:42;2.10;99.90
6429;DHT22;3247;48.946;10.220;2022-12-05T08:04:07;2.20;99.90
6429;DHT22;3247;48.946;10.220;2022-12-05T08:06:33;2.20;99.90
6429;DHT22;3247;48.946;10.220;2022-12-05T08:08:58;2.20;99.90
6429;DHT22;3247;48.946;10.220;2022-12-05T08:11:25;2.30;99.90
6429;DHT22;3247;48.946;10.220;2022-12-05T08:13:51;2.30;99.90
6429;DHT22;3247;48.946;10.220;2022-12-05T08:16:21;2.30;99.90
6429;DHT22;3247;48.946;10.220;2022-12-05T08:18:47;2.30;99.90
6429;DHT22;3247;48.946;10.220;2022-12-05T08:21:13;2.40;99.90
6429;DHT22;3247;48.946;10.220;2022-12-05T08:23:40;2.40;99.90
6429;DHT22;3247;48.946;10.220;2022-12-05T08:28:34;2.50;99.90
6429;DHT22;3247;48.946;10.220;2022-12-05T08:31:10;3.70;99.90
6429;DHT22;3247;48.946;10.220;2022-12-05T08:33:36;2.50;99.90
6429;DHT22;3247;48.946;10.220;2022-12-05T08:36:03;2.60;99.90
6429;DHT22;3247;48.946;10.220;2022-12-05T08:38:29;2.70;99.90
6429;DHT22;3247;48.946;10.220;2022-12-05T08:40:54;2.70;99.90
6429;DHT22;3247;48.946;10.220;2022-12-05T08:43:20;2.70;99.90
6429;DHT22;3247;48.946;10.220;2022-12-05T08:45:54;2.80;99.90
6429;DHT22;3247;48.946;10.220;2022-12-05T08:48:20;2.90;99.90
6429;DHT22;3247;48.946;10.220;2022-12-05T08:50:46;2.90;99.90
6429;DHT22;3247;48.946;10.220;2022-12-05T08:53:11;2.90;99.90
6429;DHT22;3247;48.946;10.220;2022-12-05T08:55:37;3.00;99.90
6429;DHT22;3247;48.946;10.220;2022-12-05T08:58:03;3.00;99.90
6429;DHT22;3247;48.946;10.220;2022-12-05T09:00:28;3.10;99.90
6429;DHT22;3247;48.946;10.220;2022-12-05T09:02:54;3.00;99.90
6429;DHT22;3247;48.946;10.220;2022-12-05T09:05:20;3.20;99.90
6429;DHT22;3247;48.946;10.220;2022-12-05T09:07:46;3.30;99.90
6429;DHT22;3247;48.946;10.220;2022-12-05T09:10:11;3.40;99.90
6429;DHT22;3247;48.946;10.220;2022-12-05T09:12:37;3.40;99.90
6429;DHT22;3247;48.946;10.220;2022-12-05T09:15:04;3.50;99.90
6429;DHT22;3247;48.946;10.220;2022-12-05T09:17:36;3.40;99.90
6429;DHT22;3247;48.946;10.220;2022-12-05T09:20:02;3.40;99.90
6429;DHT22;3247;48.946;10.220;2022-12-05T09:22:30;3.50;99.90
6429;DHT22;3247;48.946;10.220;2022-12-05T09:24:55;3.50;99.90
6429;DHT22;3247;48.946;10.220;2022-12-05T09:27:21;3.60;99.90
6429;DHT22;3247;48.946;10.220;2022-12-05T09:29:46;3.70;99.90
6429;DHT22;3247;48.946;10.220;2022-12-05T09:32:12;3.80;99.90
6429;DHT22;3247;48.946;10.220;2022-12-05T09:34:37;3.70;99.90
6429;DHT22;3247;48.946;10.220;2022-12-05T09:37:03;3.70;99.90
6429;DHT22;3247;48.946;10.220;2022-12-05T09:39:29;3.80;99.90
6429;DHT22;3247;48.946;10.220;2022-12-05T09:44:40;3.90;99.90
6429;DHT22;3247;48.946;10.220;2022-12-05T09:50:11;4.00;99.90
6429;DHT22;3247;48.946;10.220;2022-12-05T09:52:39;4.10;99.90
6429;DHT22;3247;48.946;10.220;2022-12-05T09:55:10;4.10;99.90
6429;DHT22;3247;48.946;10.220;2022-12-05T09:57:37;4.10;99.90
6429;DHT22;3247;48.946;10.220;2022-12-05T10:00:05;4.10;99.90
6429;DHT22;3247;48.946;10.220;2022-12-05T10:02:35;4.10;99.90
6429;DHT22;3247;48.946;10.220;2022-12-05T10:05:08;4.10;99.90
6429;DHT22;3247;48.946;10.220;2022-12-05T10:07:41;4.10;99.90
6429;DHT22;3247;48.946;10.220;2022-12-05T10:20:43;4.10;99.90
6429;DHT22;3247;48.946;10.220;2022-12-05T10:23:34;4.00;99.90
6429;DHT22;3247;48.946;10.220;2022-12-05T10:25:58;4.00;99.90
6429;DHT22;3247;48.946;10.220;2022-12-05T10:31:06;4.00;99.90
6429;DHT22;3247;48.946;10.220;2022-12-05T10:33:36;4.00;99.90
6429;DHT22;3247;48.946;10.220;2022-12-05T10:36:05;4.00;99.90
6429;DHT22;3247;48.946;10.220;2022-12-05T10:38:33;4.00;99.90
6429;DHT22;3247;48.946;10.220;2022-12-05T10:40:59;4.00;99.90
6429;DHT22;3247;48.946;10.220;2022-12-05T10:43:26;4.00;99.90
6429;DHT22;3247;48.946;10.220;2022-12-05T10:46:08;4.80;99.90
6429;DHT22;3247;48.946;10.220;2022-12-05T10:48:34;4.10;99.90
6429;DHT22;3247;48.946;10.220;2022-12-05T10:51:01;4.30;99.90
6429;DHT22;3247;48.946;10.220;2022-12-05T10:53:48;4.40;99.90
6429;DHT22;3247;48.946;10.220;2022-12-05T10:58:59;4.60;99.90
6429;DHT22;3247;48.946;10.220;2022-12-05T11:01:25;4.60;99.90
6429;DHT22;3247;48.946;10.220;2022-12-05T11:03:55;4.70;99.90
6429;DHT22;3247;48.946;10.220;2022-12-05T11:06:25;4.70;99.90
6429;DHT22;3247;48.946;10.220;2022-12-05T11:08:55;4.70;99.90
6429;DHT22;3247;48.946;10.220;2022-12-05T11:11:25;4.80;99.90
6429;DHT22;3247;48.946;10.220;2022-12-05T11:13:53;4.70;99.90
6429;DHT22;3247;48.946;10.220;2022-12-05T11:16:24;4.70;99.90
6429;DHT22;3247;48.946;10.220;2022-12-05T11:18:50;4.70;99.90
6429;DHT22;3247;48.946;10.220;2022-12-05T11:21:15;4.80;99.90
6429;DHT22;3247;48.946;10.220;2022-12-05T11:23:44;4.80;99.90
6429;DHT22;3247;48.946;10.220;2022-12-05T11:28:41;4.80;99.90
6429;DHT22;3247;48.946;10.220;2022-12-05T11:33:41;4.90;99.90
6429;DHT22;3247;48.946;10.220;2022-12-05T11:36:19;5.00;99.90
6429;DHT22;3247;48.946;10.220;2022-12-05T11:38:46;5.00;99.90
6429;DHT22;3247;48.946;10.220;2022-12-05T11:43:51;5.00;99.90
6429;DHT22;3247;48.946;10.220;2022-12-05T11:51:41;4.80;99.90
6429;DHT22;3247;48.946;10.220;2022-12-05T11:56:58;4.80;99.90
6429;DHT22;3247;48.946;10.220;2022-12-05T12:04:45;4.60;99.90
6429;DHT22;3247;48.946;10.220;2022-12-05T12:12:28;4.60;99.90
6429;DHT22;3247;48.946;10.220;2022-12-05T12:17:47;4.50;99.90
6429;DHT22;3247;48.946;10.220;2022-12-05T12:23:03;4.50;99.90
6429;DHT22;3247;48.946;10.220;2022-12-05T12:25:37;4.60;99.90
6429;DHT22;3247;48.946;10.220;2022-12-05T12:33:29;4.70;99.90
6429;DHT22;3247;48.946;10.220;2022-12-05T12:38:29;4.70;99.90
6429;DHT22;3247;48.946;10.220;2022-12-05T12:41:02;4.70;99.90
6429;DHT22;3247;48.946;10.220;2022-12-05T12:46:26;4.70;99.90
6429;DHT22;3247;48.946;10.220;2022-12-05T12:48:57;4.80;99.90
6429;DHT22;3247;48.946;10.220;2022-12-05T12:51:27;4.70;99.90
6429;DHT22;3247;48.946;10.220;2022-12-05T13:04:08;4.80;99.90
6429;DHT22;3247;48.946;10.220;2022-12-05T13:06:41;4.80;99.90
6429;DHT22;3247;48.946;10.220;2022-12-05T13:09:13;4.80;99.90
6429;DHT22;3247;48.946;10.220;2022-12-05T13:11:39;4.80;99.90
6429;DHT22;3247;48.946;10.220;2022-12-05T13:14:13;4.80;99.90
6429;DHT22;3247;48.946;10.220;2022-12-05T13:19:40;4.80;99.90
6429;DHT22;3247;48.946;10.220;2022-12-05T13:22:07;4.80;99.90
6429;DHT22;3247;48.946;10.220;2022-12-05T13:24:33;4.80;99.90
6429;DHT22;3247;48.946;10.220;2022-12-05T13:26:59;4.80;99.90
6429;DHT22;3247;48.946;10.220;2022-12-05T13:29:28;4.70;99.90
6429;DHT22;3247;48.946;10.220;2022-12-05T13:31:55;4.70;99.90
6429;DHT22;3247;48.946;10.220;2022-12-05T13:36:54;4.70;99.90
6429;DHT22;3247;48.946;10.220;2022-12-05T13:39:39;4.70;99.90
6429;DHT22;3247;48.946;10.220;2022-12-05T13:42:24;4.70;99.90
6429;DHT22;3247;48.946;10.220;2022-12-05T13:50:15;4.60;99.90
6429;DHT22;3247;48.946;10.220;2022-12-05T13:52:47;4.60;99.90
6429;DHT22;3247;48.946;10.220;2022-12-05T13:55:30;4.70;99.90
6429;DHT22;3247;48.946;10.220;2022-12-05T13:57:57;4.70;99.90
6429;DHT22;3247;48.946;10.220;2022-12-05T14:00:25;4.70;99.90
6429;DHT22;3247;48.946;10.220;2022-12-05T14:02:55;4.70;99.90
6429;DHT22;3247;48.946;10.220;2022-12-05T14:07:47;4.60;99.90
6429;DHT22;3247;48.946;10.220;2022-12-05T14:10:13;4.60;99.90
6429;DHT22;3247;48.946;10.220;2022-12-05T14:20:55;4.60;99.90
6429;DHT22;3247;48.946;10.220;2022-12-05T14:26:10;4.70;99.90
6429;DHT22;3247;48.946;10.220;2022-12-05T14:28:53;4.70;99.90
6429;DHT22;3247;48.946;10.220;2022-12-05T14:34:19;4.70;99.90
6429;DHT22;3247;48.946;10.220;2022-12-05T14:37:00;4.70;99.90
6429;DHT22;3247;48.946;10.220;2022-12-05T14:39:29;4.70;99.90
6429;DHT22;3247;48.946;10.220;2022-12-05T14:41:59;4.70;99.90
6429;DHT22;3247;48.946;10.220;2022-12-05T14:44:25;4.70;99.90
6429;DHT22;3247;48.946;10.220;2022-12-05T14:52:40;4.60;99.90
6429;DHT22;3247;48.946;10.220;2022-12-05T14:55:09;4.60;99.90
6429;DHT22;3247;48.946;10.220;2022-12-05T14:57:40;4.60;99.90
6429;DHT22;3247;48.946;10.220;2022-12-05T15:00:13;4.60;99.90
6429;DHT22;3247;48.946;10.220;2022-12-05T15:02:42;4.60;99.90
6429;DHT22;3247;48.946;10.220;2022-12-05T15:07:47;4.50;99.90
6429;DHT22;3247;48.946;10.220;2022-12-05T15:10:24;4.40;99.90
6429;DHT22;3247;48.946;10.220;2022-12-05T15:12:59;4.40;99.90
6429;DHT22;3247;48.946;10.220;2022-12-05T15:15:30;4.30;99.90
6429;DHT22;3247;48.946;10.220;2022-12-05T15:18:02;4.30;99.90
6429;DHT22;3247;48.946;10.220;2022-12-05T15:20:36;4.30;99.90
6429;DHT22;3247;48.946;10.220;2022-12-05T15:23:35;4.20;99.90
6429;DHT22;3247;48.946;10.220;2022-12-05T15:25:50;4.20;99.90
6429;DHT22;3247;48.946;10.220;2022-12-05T15:28:17;4.50;99.90
6429;DHT22;3247;48.946;10.220;2022-12-05T15:30:45;4.20;99.90
6429;DHT22;3247;48.946;10.220;2022-12-05T15:33:18;4.10;99.90
6429;DHT22;3247;48.946;10.220;2022-12-05T15:35:44;4.10;99.90
6429;DHT22;3247;48.946;10.220;2022-12-05T15:38:13;4.10;99.90
6429;DHT22;3247;48.946;10.220;2022-12-05T15:40:44;4.00;99.90
6429;DHT22;3247;48.946;10.220;2022-12-05T15:43:22;4.00;99.90
6429;DHT22;3247;48.946;10.220;2022-12-05T15:46:14;4.00;99.90
6429;DHT22;3247;48.946;10.220;2022-12-05T15:48:38;4.00;99.90
6429;DHT22;3247;48.946;10.220;2022-12-05T15:51:04;4.00;99.90
6429;DHT22;3247;48.946;10.220;2022-12-05T15:55:57;3.90;99.90
6429;DHT22;3247;48.946;10.220;2022-12-05T15:58:32;3.90;99.90
6429;DHT22;3247;48.946;10.220;2022-12-05T16:01:07;3.90;99.90
6429;DHT22;3247;48.946;10.220;2022-12-05T16:06:22;3.90;99.90
6429;DHT22;3247;48.946;10.220;2022-12-05T16:08:50;3.80;99.90
6429;DHT22;3247;48.946;10.220;2022-12-05T16:11:16;3.80;99.90
6429;DHT22;3247;48.946;10.220;2022-12-05T16:13:43;3.80;99.90
6429;DHT22;3247;48.946;10.220;2022-12-05T16:16:16;4.00;99.90
6429;DHT22;3247;48.946;10.220;2022-12-05T16:18:51;3.80;99.90
6429;DHT22;3247;48.946;10.220;2022-12-05T16:21:27;3.80;99.90
6429;DHT22;3247;48.946;10.220;2022-12-05T16:23:58;3.80;99.90
6429;DHT22;3247;48.946;10.220;2022-12-05T16:26:24;3.80;99.90
6429;DHT22;3247;48.946;10.220;2022-12-05T16:28:59;3.80;99.90
6429;DHT22;3247;48.946;10.220;2022-12-05T16:31:26;3.80;99.90
6429;DHT22;3247;48.946;10.220;2022-12-05T16:33:58;3.80;99.90
6429;DHT22;3247;48.946;10.220;2022-12-05T16:36:24;3.80;99.90
6429;DHT22;3247;48.946;10.220;2022-12-05T16:38:50;3.80;99.90
6429;DHT22;3247;48.946;10.220;2022-12-05T16:41:30;3.80;99.90
6429;DHT22;3247;48.946;10.220;2022-12-05T16:43:56;3.80;99.90
6429;DHT22;3247;48.946;10.220;2022-12-05T16:51:39;3.70;99.90
6429;DHT22;3247;48.946;10.220;2022-12-05T16:54:06;3.80;99.90
6429;DHT22;3247;48.946;10.220;2022-12-05T16:56:32;3.70;99.90
6429;DHT22;3247;48.946;10.220;2022-12-05T16:59:01;3.70;99.90
6429;DHT22;3247;48.946;10.220;2022-12-05T17:01:26;3.70;99.90
6429;DHT22;3247;48.946;10.220;2022-12-05T17:03:52;3.70;99.90
6429;DHT22;3247;48.946;10.220;2022-12-05T17:06:19;3.70;99.90
6429;DHT22;3247;48.946;10.220;2022-12-05T17:08:48;3.60;99.90
6429;DHT22;3247;48.946;10.220;2022-12-05T17:11:19;3.60;99.90
6429;DHT22;3247;48.946;10.220;2022-12-05T17:13:46;3.60;99.90
6429;DHT22;3247;48.946;10.220;2022-12-05T17:16:13;3.60;99.90
6429;DHT22;3247;48.946;10.220;2022-12-05T17:18:38;3.60;99.90
6429;DHT22;3247;48.946;10.220;2022-12-05T17:21:04;3.60;99.90
6429;DHT22;3247;48.946;10.220;2022-12-05T17:23:30;3.50;99.90
6429;DHT22;3247;48.946;10.220;2022-12-05T17:25:56;3.50;99.90
6429;DHT22;3247;48.946;10.220;2022-12-05T17:28:22;3.50;99.90
6429;DHT22;3247;48.946;10.220;2022-12-05T17:30:49;3.40;99.90
6429;DHT22;3247;48.946;10.220;2022-12-05T17:33:15;3.40;99.90
6429;DHT22;3247;48.946;10.220;2022-12-05T17:35:41;3.50;99.90
6429;DHT22;3247;48.946;10.220;2022-12-05T17:38:07;3.50;99.90
6429;DHT22;3247;48.946;10.220;2022-12-05T17:40:34;3.50;99.90
6429;DHT22;3247;48.946;10.220;2022-12-05T17:43:00;3.40;99.90
6429;DHT22;3247;48.946;10.220;2022-12-05T17:45:25;3.40;99.90
6429;DHT22;3247;48.946;10.220;2022-12-05T17:47:51;3.70;99.90
6429;DHT22;3247;48.946;10.220;2022-12-05T17:50:19;3.50;99.90
6429;DHT22;3247;48.946;10.220;2022-12-05T17:52:46;3.50;99.90
6429;DHT22;3247;48.946;10.220;2022-12-05T17:55:16;3.40;99.90
6429;DHT22;3247;48.946;10.220;2022-12-05T17:57:42;3.40;99.90
6429;DHT22;3247;48.946;10.220;2022-12-05T18:00:08;3.40;99.90
6429;DHT22;3247;48.946;10.220;2022-12-05T18:02:34;3.30;99.90
6429;DHT22;3247;48.946;10.220;2022-12-05T18:04:59;3.40;99.90
6429;DHT22;3247;48.946;10.220;2022-12-05T18:07:25;3.20;99.90
6429;DHT22;3247;48.946;10.220;2022-12-05T18:09:50;3.20;99.90
6429;DHT22;3247;48.946;10.220;2022-12-05T18:12:16;3.20;99.90
6429;DHT22;3247;48.946;10.220;2022-12-05T18:14:42;3.10;99.90
6429;DHT22;3247;48.946;10.220;2022-12-05T18:17:07;3.10;99.90
6429;DHT22;3247;48.946;10.220;2022-12-05T18:19:33;3.10;99.90
6429;DHT22;3247;48.946;10.220;2022-12-05T18:21:58;3.00;99.90
6429;DHT22;3247;48.946;10.220;2022-12-05T18:24:24;3.00;99.90
6429;DHT22;3247;48.946;10.220;2022-12-05T18:26:49;3.00;99.90
6429;DHT22;3247;48.946;10.220;2022-12-05T18:29:14;3.00;99.90
6429;DHT22;3247;48.946;10.220;2022-12-05T18:31:40;3.00;99.90
6429;DHT22;3247;48.946;10.220;2022-12-05T18:34:07;3.00;99.90
6429;DHT22;3247;48.946;10.220;2022-12-05T18:36:32;3.00;99.90
6429;DHT22;3247;48.946;10.220;2022-12-05T18:38:58;3.00;99.90
6429;DHT22;3247;48.946;10.220;2022-12-05T18:41:25;3.00;99.90
6429;DHT22;3247;48.946;10.220;2022-12-05T18:43:51;2.10;99.90
6429;DHT22;3247;48.946;10.220;2022-12-05T18:49:20;3.00;99.90
6429;DHT22;3247;48.946;10.220;2022-12-05T18:51:45;3.10;99.90
6429;DHT22;3247;48.946;10.220;2022-12-05T18:54:11;3.10;99.90
6429;DHT22;3247;48.946;10.220;2022-12-05T18:56:36;3.10;99.90
6429;DHT22;3247;48.946;10.220;2022-12-05T18:59:09;3.20;99.90
6429;DHT22;3247;48.946;10.220;2022-12-05T19:01:37;3.20;99.90
6429;DHT22;3247;48.946;10.220;2022-12-05T19:04:04;3.20;99.90
6429;DHT22;3247;48.946;10.220;2022-12-05T19:06:31;3.20;99.90
6429;DHT22;3247;48.946;10.220;2022-12-05T19:08:58;3.20;99.90
6429;DHT22;3247;48.946;10.220;2022-12-05T19:11:24;3.30;99.90